sensor_id;sensor_type;location;lat;lon;timestamp;pressure;altitude;pressure_sealevel;temperature;humidity
41254;BME280;26987;59.928;30.306;2023-03-26T00:01:36;99521.25;;;1.57;100.00
41254;BME280;26987;59.928;30.306;2023-03-26T00:04:05;99523.91;;;1.57;100.00
41254;BME280;26987;59.928;30.306;2023-03-26T00:06:35;99521.38;;;1.63;100.00
41254;BME280;26987;59.928;30.306;2023-03-26T00:09:06;99507.16;;;1.64;100.00
41254;BME280;26987;59.928;30.306;2023-03-26T00:11:34;99500.16;;;1.72;100.00
41254;BME280;26987;59.928;30.306;2023-03-26T00:14:03;99501.09;;;1.79;100.00
41254;BME280;26987;59.928;30.306;2023-03-26T00:16:32;99496.63;;;1.80;100.00
41254;BME280;26987;59.928;30.306;2023-03-26T00:19:00;99498.28;;;1.81;100.00
41254;BME280;26987;59.928;30.306;2023-03-26T00:21:29;99495.25;;;1.84;100.00
41254;BME280;26987;59.928;30.306;2023-03-26T00:23:59;99489.53;;;1.80;100.00
41254;BME280;26987;59.928;30.306;2023-03-26T00:26:30;99490.06;;;1.91;100.00
41254;BME280;26987;59.928;30.306;2023-03-26T00:28:58;99485.63;;;1.91;100.00
41254;BME280;26987;59.928;30.306;2023-03-26T00:31:30;99456.53;;;1.76;100.00
41254;BME280;26987;59.928;30.306;2023-03-26T00:33:58;99477.69;;;1.91;100.00
41254;BME280;26987;59.928;30.306;2023-03-26T00:36:28;99484.06;;;1.97;100.00
41254;BME280;26987;59.928;30.306;2023-03-26T00:38:56;99488.72;;;1.95;100.00
41254;BME280;26987;59.928;30.306;2023-03-26T00:41:24;99460.81;;;1.77;100.00
41254;BME280;26987;59.928;30.306;2023-03-26T00:43:57;99502.84;;;2.02;100.00
41254;BME280;26987;59.928;30.306;2023-03-26T00:46:28;99508.69;;;2.12;100.00
41254;BME280;26987;59.928;30.306;2023-03-26T00:48:58;99503.97;;;2.23;100.00
41254;BME280;26987;59.928;30.306;2023-03-26T00:51:27;99508.81;;;2.34;100.00
41254;BME280;26987;59.928;30.306;2023-03-26T00:53:56;99510.16;;;2.45;100.00
41254;BME280;26987;59.928;30.306;2023-03-26T00:56:24;99509.03;;;2.55;100.00
41254;BME280;26987;59.928;30.306;2023-03-26T00:58:52;99514.16;;;2.56;100.00
41254;BME280;26987;59.928;30.306;2023-03-26T01:01:23;99512.16;;;2.58;100.00
41254;BME280;26987;59.928;30.306;2023-03-26T01:03:53;99506.50;;;2.61;100.00
41254;BME280;26987;59.928;30.306;2023-03-26T01:06:28;99493.41;;;2.75;100.00
41254;BME280;26987;59.928;30.306;2023-03-26T01:09:03;99508.81;;;2.86;100.00
41254;BME280;26987;59.928;30.306;2023-03-26T01:11:33;99505.78;;;2.89;100.00
41254;BME280;26987;59.928;30.306;2023-03-26T01:14:05;99483.91;;;2.81;100.00
41254;BME280;26987;59.928;30.306;2023-03-26T01:16:38;99499.06;;;2.87;100.00
41254;BME280;26987;59.928;30.306;2023-03-26T01:19:13;99514.81;;;2.95;100.00
41254;BME280;26987;59.928;30.306;2023-03-26T01:21:43;99500.78;;;2.95;100.00
41254;BME280;26987;59.928;30.306;2023-03-26T01:24:13;99492.69;;;3.03;100.00
41254;BME280;26987;59.928;30.306;2023-03-26T01:27:13;99505.09;;;3.18;100.00
41254;BME280;26987;59.928;30.306;2023-03-26T01:29:49;99482.56;;;3.07;100.00
41254;BME280;26987;59.928;30.306;2023-03-26T01:32:29;99482.19;;;3.10;100.00
41254;BME280;26987;59.928;30.306;2023-03-26T01:38:00;99479.78;;;3.15;100.00
41254;BME280;26987;59.928;30.306;2023-03-26T01:40:41;99493.59;;;3.10;100.00
41254;BME280;26987;59.928;30.306;2023-03-26T01:43:20;99483.50;;;2.99;100.00
41254;BME280;26987;59.928;30.306;2023-03-26T01:45:51;99479.59;;;2.95;100.00
41254;BME280;26987;59.928;30.306;2023-03-26T01:48:19;99467.41;;;3.00;100.00
41254;BME280;26987;59.928;30.306;2023-03-26T01:50:47;99463.69;;;2.95;100.00
41254;BME280;26987;59.928;30.306;2023-03-26T01:53:18;99452.59;;;2.84;100.00
41254;BME280;26987;59.928;30.306;2023-03-26T01:55:54;99454.97;;;2.79;100.00
41254;BME280;26987;59.928;30.306;2023-03-26T01:58:31;99456.84;;;2.63;100.00
41254;BME280;26987;59.928;30.306;2023-03-26T02:01:10;99450.13;;;2.46;100.00
41254;BME280;26987;59.928;30.306;2023-03-26T02:03:46;99462.34;;;2.47;100.00
41254;BME280;26987;59.928;30.306;2023-03-26T02:06:20;99462.41;;;2.54;100.00
41254;BME280;26987;59.928;30.306;2023-03-26T02:08:52;99457.13;;;2.54;100.00
41254;BME280;26987;59.928;30.306;2023-03-26T02:11:24;99471.44;;;2.59;100.00
41254;BME280;26987;59.928;30.306;2023-03-26T02:13:52;99469.25;;;2.63;100.00
41254;BME280;26987;59.928;30.306;2023-03-26T02:16:20;99467.50;;;2.70;100.00
41254;BME280;26987;59.928;30.306;2023-03-26T02:18:48;99430.47;;;2.55;100.00
41254;BME280;26987;59.928;30.306;2023-03-26T02:21:22;99459.06;;;2.82;100.00
41254;BME280;26987;59.928;30.306;2023-03-26T02:23:53;99466.91;;;2.90;100.00
41254;BME280;26987;59.928;30.306;2023-03-26T02:26:25;99472.84;;;2.92;100.00
41254;BME280;26987;59.928;30.306;2023-03-26T02:29:04;99463.94;;;3.00;100.00
41254;BME280;26987;59.928;30.306;2023-03-26T02:31:35;99466.03;;;3.05;100.00
41254;BME280;26987;59.928;30.306;2023-03-26T02:34:03;99465.47;;;3.09;100.00
41254;BME280;26987;59.928;30.306;2023-03-26T02:36:34;99451.16;;;3.03;100.00
41254;BME280;26987;59.928;30.306;2023-03-26T02:39:03;99467.63;;;3.21;100.00
41254;BME280;26987;59.928;30.306;2023-03-26T02:41:39;99363.50;;;2.55;100.00
41254;BME280;26987;59.928;30.306;2023-03-26T02:44:09;99461.13;;;3.23;100.00
41254;BME280;26987;59.928;30.306;2023-03-26T02:46:56;99468.50;;;3.28;100.00
41254;BME280;26987;59.928;30.306;2023-03-26T02:49:46;99474.91;;;3.40;100.00
41254;BME280;26987;59.928;30.306;2023-03-26T02:52:37;99451.06;;;3.40;100.00
41254;BME280;26987;59.928;30.306;2023-03-26T02:55:05;99394.47;;;2.98;100.00
41254;BME280;26987;59.928;30.306;2023-03-26T02:57:35;99469.50;;;3.49;100.00
41254;BME280;26987;59.928;30.306;2023-03-26T03:00:07;99457.06;;;3.49;100.00
41254;BME280;26987;59.928;30.306;2023-03-26T03:02:36;99460.91;;;3.47;100.00
41254;BME280;26987;59.928;30.306;2023-03-26T03:05:24;99383.13;;;3.04;100.00
41254;BME280;26987;59.928;30.306;2023-03-26T03:08:05;99457.69;;;3.51;100.00
41254;BME280;26987;59.928;30.306;2023-03-26T03:10:35;99462.59;;;3.55;100.00
41254;BME280;26987;59.928;30.306;2023-03-26T03:13:26;99452.38;;;3.51;100.00
41254;BME280;26987;59.928;30.306;2023-03-26T03:15:55;99446.66;;;3.48;100.00
41254;BME280;26987;59.928;30.306;2023-03-26T03:18:23;99458.50;;;3.52;100.00
41254;BME280;26987;59.928;30.306;2023-03-26T03:20:51;99454.00;;;3.52;100.00
41254;BME280;26987;59.928;30.306;2023-03-26T03:23:19;99446.25;;;3.51;100.00
41254;BME280;26987;59.928;30.306;2023-03-26T03:25:49;99452.63;;;3.57;100.00
41254;BME280;26987;59.928;30.306;2023-03-26T03:28:17;99454.47;;;3.56;100.00
41254;BME280;26987;59.928;30.306;2023-03-26T03:30:47;99453.06;;;3.60;100.00
41254;BME280;26987;59.928;30.306;2023-03-26T03:33:25;99426.59;;;3.38;100.00
41254;BME280;26987;59.928;30.306;2023-03-26T03:35:53;99449.59;;;3.60;100.00
41254;BME280;26987;59.928;30.306;2023-03-26T03:38:22;99448.78;;;3.59;100.00
41254;BME280;26987;59.928;30.306;2023-03-26T03:40:51;99451.88;;;3.63;100.00
41254;BME280;26987;59.928;30.306;2023-03-26T03:43:23;99451.03;;;3.62;100.00
41254;BME280;26987;59.928;30.306;2023-03-26T03:46:10;99449.41;;;3.61;100.00
41254;BME280;26987;59.928;30.306;2023-03-26T03:48:48;99443.84;;;3.56;100.00
41254;BME280;26987;59.928;30.306;2023-03-26T03:51:22;99420.91;;;3.42;100.00
41254;BME280;26987;59.928;30.306;2023-03-26T03:53:56;99452.69;;;3.63;100.00
41254;BME280;26987;59.928;30.306;2023-03-26T03:56:41;99449.03;;;3.64;100.00
41254;BME280;26987;59.928;30.306;2023-03-26T03:59:13;99425.94;;;3.58;100.00
41254;BME280;26987;59.928;30.306;2023-03-26T04:01:44;99432.69;;;3.61;100.00
41254;BME280;26987;59.928;30.306;2023-03-26T04:04:30;99433.13;;;3.64;100.00
41254;BME280;26987;59.928;30.306;2023-03-26T04:07:05;99437.59;;;3.64;100.00
41254;BME280;26987;59.928;30.306;2023-03-26T04:09:51;99432.22;;;3.57;100.00
41254;BME280;26987;59.928;30.306;2023-03-26T04:12:21;99442.13;;;3.70;100.00
41254;BME280;26987;59.928;30.306;2023-03-26T04:14:59;99431.25;;;3.58;100.00
41254;BME280;26987;59.928;30.306;2023-03-26T04:17:28;99437.44;;;3.72;100.00
41254;BME280;26987;59.928;30.306;2023-03-26T04:19:56;99447.72;;;3.82;100.00
41254;BME280;26987;59.928;30.306;2023-03-26T04:22:32;99450.59;;;3.87;100.00
41254;BME280;26987;59.928;30.306;2023-03-26T04:25:03;99454.28;;;3.93;100.00
41254;BME280;26987;59.928;30.306;2023-03-26T04:27:37;99443.28;;;3.96;100.00
41254;BME280;26987;59.928;30.306;2023-03-26T04:30:19;99439.22;;;3.94;100.00
41254;BME280;26987;59.928;30.306;2023-03-26T04:32:59;99447.25;;;4.07;100.00
41254;BME280;26987;59.928;30.306;2023-03-26T04:35:32;99451.53;;;4.08;100.00
41254;BME280;26987;59.928;30.306;2023-03-26T04:38:01;99461.34;;;4.08;100.00
41254;BME280;26987;59.928;30.306;2023-03-26T04:40:35;99453.00;;;4.18;100.00
41254;BME280;26987;59.928;30.306;2023-03-26T04:43:27;99454.88;;;4.17;100.00
41254;BME280;26987;59.928;30.306;2023-03-26T04:46:17;99444.66;;;4.21;100.00
41254;BME280;26987;59.928;30.306;2023-03-26T04:48:54;99457.97;;;4.27;100.00
41254;BME280;26987;59.928;30.306;2023-03-26T04:51:24;99455.72;;;4.31;100.00
41254;BME280;26987;59.928;30.306;2023-03-26T04:53:56;99451.25;;;4.32;100.00
41254;BME280;26987;59.928;30.306;2023-03-26T04:56:36;99448.00;;;4.36;100.00
41254;BME280;26987;59.928;30.306;2023-03-26T04:59:10;99447.41;;;4.41;100.00
41254;BME280;26987;59.928;30.306;2023-03-26T05:01:40;99432.28;;;4.35;100.00
41254;BME280;26987;59.928;30.306;2023-03-26T05:04:13;99441.13;;;4.49;100.00
41254;BME280;26987;59.928;30.306;2023-03-26T05:06:42;99448.66;;;4.45;100.00
41254;BME280;26987;59.928;30.306;2023-03-26T05:09:30;99449.69;;;4.44;100.00
41254;BME280;26987;59.928;30.306;2023-03-26T05:12:12;99445.38;;;4.43;100.00
41254;BME280;26987;59.928;30.306;2023-03-26T05:15:10;99456.03;;;4.50;100.00
41254;BME280;26987;59.928;30.306;2023-03-26T05:18:03;99455.88;;;4.72;100.00
41254;BME280;26987;59.928;30.306;2023-03-26T05:20:40;99452.97;;;4.53;100.00
41254;BME280;26987;59.928;30.306;2023-03-26T05:23:09;99447.47;;;4.54;100.00
41254;BME280;26987;59.928;30.306;2023-03-26T05:25:41;99449.72;;;4.58;100.00
41254;BME280;26987;59.928;30.306;2023-03-26T05:28:17;99448.91;;;4.64;100.00
41254;BME280;26987;59.928;30.306;2023-03-26T05:30:59;99421.53;;;4.50;100.00
41254;BME280;26987;59.928;30.306;2023-03-26T05:33:32;99447.53;;;4.68;100.00
41254;BME280;26987;59.928;30.306;2023-03-26T05:36:08;99458.16;;;4.75;100.00
41254;BME280;26987;59.928;30.306;2023-03-26T05:38:40;99422.56;;;4.56;100.00
41254;BME280;26987;59.928;30.306;2023-03-26T05:41:13;99441.78;;;4.64;100.00
41254;BME280;26987;59.928;30.306;2023-03-26T05:43:43;99461.63;;;4.75;100.00
41254;BME280;26987;59.928;30.306;2023-03-26T05:46:23;99437.06;;;4.60;100.00
41254;BME280;26987;59.928;30.306;2023-03-26T05:48:52;99467.78;;;4.83;100.00
41254;BME280;26987;59.928;30.306;2023-03-26T05:51:22;99464.53;;;4.87;100.00
41254;BME280;26987;59.928;30.306;2023-03-26T05:54:00;99459.41;;;4.92;100.00
41254;BME280;26987;59.928;30.306;2023-03-26T05:56:46;99463.31;;;4.97;100.00
41254;BME280;26987;59.928;30.306;2023-03-26T05:59:33;99463.53;;;5.02;100.00
41254;BME280;26987;59.928;30.306;2023-03-26T06:02:20;99467.00;;;5.02;100.00
41254;BME280;26987;59.928;30.306;2023-03-26T06:05:08;99462.94;;;5.00;100.00
41254;BME280;26987;59.928;30.306;2023-03-26T06:08:04;99466.81;;;5.04;100.00
41254;BME280;26987;59.928;30.306;2023-03-26T06:10:37;99461.28;;;5.05;100.00
41254;BME280;26987;59.928;30.306;2023-03-26T06:13:05;99469.25;;;5.12;100.00
41254;BME280;26987;59.928;30.306;2023-03-26T06:15:36;99465.00;;;5.18;100.00
41254;BME280;26987;59.928;30.306;2023-03-26T06:18:13;99463.78;;;5.21;100.00
41254;BME280;26987;59.928;30.306;2023-03-26T06:21:02;99461.72;;;5.23;100.00
41254;BME280;26987;59.928;30.306;2023-03-26T06:23:46;99470.50;;;5.23;100.00
41254;BME280;26987;59.928;30.306;2023-03-26T06:26:33;99476.63;;;5.17;100.00
41254;BME280;26987;59.928;30.306;2023-03-26T06:29:18;99465.00;;;5.18;100.00
41254;BME280;26987;59.928;30.306;2023-03-26T06:32:04;99473.56;;;5.20;100.00
41254;BME280;26987;59.928;30.306;2023-03-26T06:34:36;99476.47;;;5.25;100.00
41254;BME280;26987;59.928;30.306;2023-03-26T06:37:04;99466.03;;;5.24;100.00
41254;BME280;26987;59.928;30.306;2023-03-26T06:39:33;99469.50;;;5.31;100.00
41254;BME280;26987;59.928;30.306;2023-03-26T06:42:13;99475.66;;;5.32;100.00
41254;BME280;26987;59.928;30.306;2023-03-26T06:45:01;99465.00;;;5.25;100.00
41254;BME280;26987;59.928;30.306;2023-03-26T06:47:48;99466.03;;;5.30;100.00
41254;BME280;26987;59.928;30.306;2023-03-26T06:50:35;99458.44;;;5.27;100.00
41254;BME280;26987;59.928;30.306;2023-03-26T06:53:10;99473.00;;;5.65;100.00
41254;BME280;26987;59.928;30.306;2023-03-26T06:55:53;99451.50;;;5.26;100.00
41254;BME280;26987;59.928;30.306;2023-03-26T06:58:35;99470.09;;;5.26;100.00
41254;BME280;26987;59.928;30.306;2023-03-26T07:01:21;99457.66;;;5.27;100.00
41254;BME280;26987;59.928;30.306;2023-03-26T07:04:07;99458.88;;;5.17;100.00
41254;BME280;26987;59.928;30.306;2023-03-26T07:06:53;99462.72;;;5.01;100.00
41254;BME280;26987;59.928;30.306;2023-03-26T07:09:44;99470.03;;;4.92;100.00
41254;BME280;26987;59.928;30.306;2023-03-26T07:12:33;99477.81;;;4.87;100.00
41254;BME280;26987;59.928;30.306;2023-03-26T07:15:27;99484.91;;;4.66;100.00
41254;BME280;26987;59.928;30.306;2023-03-26T07:18:18;99486.38;;;4.34;100.00
41254;BME280;26987;59.928;30.306;2023-03-26T07:20:48;99461.84;;;3.89;100.00
41254;BME280;26987;59.928;30.306;2023-03-26T07:23:19;99488.16;;;3.91;100.00
41254;BME280;26987;59.928;30.306;2023-03-26T07:26:20;99503.16;;;3.77;100.00
41254;BME280;26987;59.928;30.306;2023-03-26T07:29:17;99495.63;;;3.52;100.00
41254;BME280;26987;59.928;30.306;2023-03-26T07:32:12;99487.25;;;3.26;100.00
41254;BME280;26987;59.928;30.306;2023-03-26T07:34:54;99493.09;;;3.22;100.00
41254;BME280;26987;59.928;30.306;2023-03-26T07:37:46;99504.81;;;3.12;100.00
41254;BME280;26987;59.928;30.306;2023-03-26T07:40:26;99501.66;;;3.02;100.00
41254;BME280;26987;59.928;30.306;2023-03-26T07:43:46;99502.03;;;2.99;100.00
41254;BME280;26987;59.928;30.306;2023-03-26T07:46:33;99507.19;;;2.85;100.00
41254;BME280;26987;59.928;30.306;2023-03-26T07:49:21;99499.00;;;2.80;100.00
41254;BME280;26987;59.928;30.306;2023-03-26T07:52:16;99485.97;;;2.63;100.00
41254;BME280;26987;59.928;30.306;2023-03-26T07:54:59;99495.34;;;2.66;100.00
41254;BME280;26987;59.928;30.306;2023-03-26T07:58:03;99493.53;;;2.67;100.00
41254;BME280;26987;59.928;30.306;2023-03-26T08:00:54;99499.81;;;2.65;100.00
41254;BME280;26987;59.928;30.306;2023-03-26T08:03:44;99501.28;;;2.68;100.00
41254;BME280;26987;59.928;30.306;2023-03-26T08:06:44;99500.19;;;2.62;100.00
41254;BME280;26987;59.928;30.306;2023-03-26T08:09:38;99454.88;;;2.20;100.00
41254;BME280;26987;59.928;30.306;2023-03-26T08:12:43;99489.56;;;2.41;100.00
41254;BME280;26987;59.928;30.306;2023-03-26T08:15:19;99499.59;;;2.45;100.00
41254;BME280;26987;59.928;30.306;2023-03-26T08:17:53;99485.81;;;2.35;100.00
41254;BME280;26987;59.928;30.306;2023-03-26T08:20:31;99503.13;;;2.52;100.00
41254;BME280;26987;59.928;30.306;2023-03-26T08:23:07;99510.88;;;2.54;100.00
41254;BME280;26987;59.928;30.306;2023-03-26T08:25:48;99520.56;;;2.47;100.00
41254;BME280;26987;59.928;30.306;2023-03-26T08:28:28;99523.13;;;2.40;100.00
41254;BME280;26987;59.928;30.306;2023-03-26T08:30:59;99515.19;;;2.25;100.00
41254;BME280;26987;59.928;30.306;2023-03-26T08:33:28;99467.66;;;1.86;100.00
41254;BME280;26987;59.928;30.306;2023-03-26T08:35:59;99523.41;;;2.30;100.00
41254;BME280;26987;59.928;30.306;2023-03-26T08:38:27;99538.63;;;2.28;100.00
41254;BME280;26987;59.928;30.306;2023-03-26T08:41:26;99534.97;;;2.44;100.00
41254;BME280;26987;59.928;30.306;2023-03-26T08:50:23;99532.69;;;2.26;100.00
41254;BME280;26987;59.928;30.306;2023-03-26T08:56:10;99522.69;;;2.21;100.00
41254;BME280;26987;59.928;30.306;2023-03-26T08:59:17;99534.16;;;2.29;100.00
41254;BME280;26987;59.928;30.306;2023-03-26T09:05:20;99528.31;;;2.18;100.00
41254;BME280;26987;59.928;30.306;2023-03-26T09:11:20;99533.84;;;2.08;100.00
41254;BME280;26987;59.928;30.306;2023-03-26T09:14:20;99533.59;;;2.03;100.00
41254;BME280;26987;59.928;30.306;2023-03-26T09:17:39;99528.88;;;2.13;100.00
41254;BME280;26987;59.928;30.306;2023-03-26T09:20:58;99521.72;;;2.14;100.00
41254;BME280;26987;59.928;30.306;2023-03-26T09:24:13;99523.84;;;2.19;100.00
41254;BME280;26987;59.928;30.306;2023-03-26T09:26:59;99516.25;;;2.16;100.00
41254;BME280;26987;59.928;30.306;2023-03-26T09:33:15;99530.69;;;2.13;100.00
41254;BME280;26987;59.928;30.306;2023-03-26T09:35:53;99529.75;;;2.06;100.00
41254;BME280;26987;59.928;30.306;2023-03-26T09:38:34;99535.53;;;2.09;100.00
41254;BME280;26987;59.928;30.306;2023-03-26T09:41:13;99539.97;;;2.09;100.00
41254;BME280;26987;59.928;30.306;2023-03-26T09:46:45;99532.47;;;1.97;100.00
41254;BME280;26987;59.928;30.306;2023-03-26T09:49:40;99545.78;;;1.89;100.00
41254;BME280;26987;59.928;30.306;2023-03-26T09:52:35;99542.66;;;1.85;100.00
41254;BME280;26987;59.928;30.306;2023-03-26T09:55:30;99544.22;;;1.95;100.00
41254;BME280;26987;59.928;30.306;2023-03-26T10:00:52;99554.25;;;1.84;100.00
41254;BME280;26987;59.928;30.306;2023-03-26T10:03:34;99550.06;;;1.90;100.00
41254;BME280;26987;59.928;30.306;2023-03-26T10:06:18;99512.66;;;1.78;100.00
41254;BME280;26987;59.928;30.306;2023-03-26T10:09:05;99537.03;;;2.04;100.00
41254;BME280;26987;59.928;30.306;2023-03-26T10:11:53;99539.81;;;2.10;100.00
41254;BME280;26987;59.928;30.306;2023-03-26T10:14:27;99541.78;;;2.08;100.00
41254;BME280;26987;59.928;30.306;2023-03-26T10:17:18;99553.28;;;2.16;100.00
41254;BME280;26987;59.928;30.306;2023-03-26T10:19:58;99544.81;;;2.20;100.00
41254;BME280;26987;59.928;30.306;2023-03-26T10:22:44;99554.97;;;2.17;100.00
41254;BME280;26987;59.928;30.306;2023-03-26T10:25:34;99552.75;;;2.20;100.00
41254;BME280;26987;59.928;30.306;2023-03-26T10:28:19;99545.72;;;2.12;100.00
41254;BME280;26987;59.928;30.306;2023-03-26T10:31:01;99549.72;;;2.08;100.00
41254;BME280;26987;59.928;30.306;2023-03-26T10:33:41;99511.69;;;1.94;100.00
41254;BME280;26987;59.928;30.306;2023-03-26T10:36:27;99539.50;;;2.05;100.00
41254;BME280;26987;59.928;30.306;2023-03-26T10:39:22;99550.66;;;2.16;100.00
41254;BME280;26987;59.928;30.306;2023-03-26T10:41:59;99553.66;;;2.12;100.00
41254;BME280;26987;59.928;30.306;2023-03-26T10:45:02;99550.19;;;2.12;100.00
41254;BME280;26987;59.928;30.306;2023-03-26T10:48:00;99547.94;;;2.24;100.00
41254;BME280;26987;59.928;30.306;2023-03-26T10:50:51;99547.22;;;2.30;100.00
41254;BME280;26987;59.928;30.306;2023-03-26T10:53:28;99565.56;;;2.47;100.00
41254;BME280;26987;59.928;30.306;2023-03-26T10:56:05;99564.34;;;2.34;100.00
41254;BME280;26987;59.928;30.306;2023-03-26T10:58:39;99561.88;;;2.18;100.00
41254;BME280;26987;59.928;30.306;2023-03-26T11:01:13;99558.31;;;2.10;100.00
41254;BME280;26987;59.928;30.306;2023-03-26T11:03:51;99552.09;;;2.03;100.00
41254;BME280;26987;59.928;30.306;2023-03-26T11:06:29;99559.88;;;2.05;100.00
41254;BME280;26987;59.928;30.306;2023-03-26T11:09:08;99555.50;;;2.12;100.00
41254;BME280;26987;59.928;30.306;2023-03-26T11:11:42;99557.31;;;2.11;100.00
41254;BME280;26987;59.928;30.306;2023-03-26T11:14:17;99559.59;;;2.14;100.00
41254;BME280;26987;59.928;30.306;2023-03-26T11:16:55;99546.47;;;2.06;100.00
41254;BME280;26987;59.928;30.306;2023-03-26T11:19:31;99563.88;;;2.16;100.00
41254;BME280;26987;59.928;30.306;2023-03-26T11:22:12;99567.06;;;2.26;100.00
41254;BME280;26987;59.928;30.306;2023-03-26T11:25:02;99568.38;;;2.30;100.00
41254;BME280;26987;59.928;30.306;2023-03-26T11:27:41;99559.34;;;2.24;100.00
41254;BME280;26987;59.928;30.306;2023-03-26T11:30:23;99568.81;;;2.34;100.00
41254;BME280;26987;59.928;30.306;2023-03-26T11:32:56;99549.94;;;2.22;100.00
41254;BME280;26987;59.928;30.306;2023-03-26T11:35:28;99548.34;;;2.12;100.00
41254;BME280;26987;59.928;30.306;2023-03-26T11:38:03;99569.44;;;2.21;100.00
41254;BME280;26987;59.928;30.306;2023-03-26T11:40:35;99564.88;;;2.14;100.00
41254;BME280;26987;59.928;30.306;2023-03-26T11:43:07;99573.00;;;2.13;100.00
41254;BME280;26987;59.928;30.306;2023-03-26T11:45:38;99572.16;;;2.12;100.00
41254;BME280;26987;59.928;30.306;2023-03-26T11:48:11;99562.25;;;2.14;100.00
41254;BME280;26987;59.928;30.306;2023-03-26T11:50:44;99560.06;;;2.18;100.00
41254;BME280;26987;59.928;30.306;2023-03-26T11:53:17;99568.25;;;2.23;100.00
41254;BME280;26987;59.928;30.306;2023-03-26T11:55:50;99564.44;;;2.26;100.00
41254;BME280;26987;59.928;30.306;2023-03-26T11:58:26;99567.16;;;2.18;100.00
41254;BME280;26987;59.928;30.306;2023-03-26T12:00:56;99532.03;;;1.94;100.00
41254;BME280;26987;59.928;30.306;2023-03-26T12:03:24;99572.72;;;2.08;100.00
41254;BME280;26987;59.928;30.306;2023-03-26T12:05:57;99467.91;;;1.38;100.00
41254;BME280;26987;59.928;30.306;2023-03-26T12:08:33;99559.69;;;2.06;100.00
41254;BME280;26987;59.928;30.306;2023-03-26T12:11:08;99565.91;;;2.13;100.00
41254;BME280;26987;59.928;30.306;2023-03-26T12:13:38;99568.91;;;2.10;100.00
41254;BME280;26987;59.928;30.306;2023-03-26T12:16:11;99543.31;;;1.87;100.00
41254;BME280;26987;59.928;30.306;2023-03-26T12:18:41;99575.44;;;1.99;100.00
41254;BME280;26987;59.928;30.306;2023-03-26T12:21:11;99575.97;;;1.95;100.00
41254;BME280;26987;59.928;30.306;2023-03-26T12:23:50;99531.88;;;1.72;100.00
41254;BME280;26987;59.928;30.306;2023-03-26T12:26:36;99573.88;;;2.05;100.00
41254;BME280;26987;59.928;30.306;2023-03-26T12:29:10;99552.16;;;1.95;100.00
41254;BME280;26987;59.928;30.306;2023-03-26T12:31:53;99559.75;;;1.98;100.00
41254;BME280;26987;59.928;30.306;2023-03-26T12:34:23;99577.72;;;2.03;100.00
41254;BME280;26987;59.928;30.306;2023-03-26T12:36:57;99575.25;;;2.01;100.00
41254;BME280;26987;59.928;30.306;2023-03-26T12:39:34;99575.06;;;2.03;100.00
41254;BME280;26987;59.928;30.306;2023-03-26T12:42:05;99571.16;;;1.98;100.00
41254;BME280;26987;59.928;30.306;2023-03-26T12:44:44;99583.38;;;1.99;100.00
41254;BME280;26987;59.928;30.306;2023-03-26T12:47:16;99562.81;;;1.86;100.00
41254;BME280;26987;59.928;30.306;2023-03-26T12:49:47;99566.94;;;1.89;100.00
41254;BME280;26987;59.928;30.306;2023-03-26T12:52:36;99563.84;;;2.00;100.00
41254;BME280;26987;59.928;30.306;2023-03-26T12:55:20;99562.16;;;1.84;100.00
41254;BME280;26987;59.928;30.306;2023-03-26T12:58:04;99565.16;;;1.81;100.00
41254;BME280;26987;59.928;30.306;2023-03-26T13:00:42;99581.38;;;1.78;100.00
41254;BME280;26987;59.928;30.306;2023-03-26T13:03:22;99567.53;;;1.76;100.00
41254;BME280;26987;59.928;30.306;2023-03-26T13:06:21;99562.78;;;1.71;100.00
41254;BME280;26987;59.928;30.306;2023-03-26T13:09:12;99575.13;;;1.79;100.00
41254;BME280;26987;59.928;30.306;2023-03-26T13:11:59;99577.09;;;1.77;100.00
41254;BME280;26987;59.928;30.306;2023-03-26T13:14:50;99573.44;;;1.78;100.00
41254;BME280;26987;59.928;30.306;2023-03-26T13:17:25;99574.72;;;1.67;100.00
41254;BME280;26987;59.928;30.306;2023-03-26T13:19:59;99572.00;;;1.75;100.00
41254;BME280;26987;59.928;30.306;2023-03-26T13:22:37;99578.88;;;1.61;100.00
41254;BME280;26987;59.928;30.306;2023-03-26T13:25:15;99571.63;;;1.55;100.00
41254;BME280;26987;59.928;30.306;2023-03-26T13:27:54;99576.69;;;1.42;100.00
41254;BME280;26987;59.928;30.306;2023-03-26T13:30:31;99569.41;;;1.44;100.00
41254;BME280;26987;59.928;30.306;2023-03-26T13:33:10;99562.59;;;1.49;100.00
41254;BME280;26987;59.928;30.306;2023-03-26T13:35:47;99560.47;;;1.45;100.00
41254;BME280;26987;59.928;30.306;2023-03-26T13:38:23;99569.19;;;1.54;100.00
41254;BME280;26987;59.928;30.306;2023-03-26T13:41:00;99554.84;;;1.48;100.00
41254;BME280;26987;59.928;30.306;2023-03-26T13:43:37;99568.06;;;1.48;100.00
41254;BME280;26987;59.928;30.306;2023-03-26T13:46:16;99568.38;;;1.53;100.00
41254;BME280;26987;59.928;30.306;2023-03-26T13:48:49;99569.72;;;1.49;100.00
41254;BME280;26987;59.928;30.306;2023-03-26T13:51:23;99561.84;;;1.41;100.00
41254;BME280;26987;59.928;30.306;2023-03-26T13:53:56;99566.25;;;1.48;100.00
41254;BME280;26987;59.928;30.306;2023-03-26T13:56:30;99568.88;;;1.48;100.00
41254;BME280;26987;59.928;30.306;2023-03-26T13:59:05;99536.09;;;1.11;100.00
41254;BME280;26987;59.928;30.306;2023-03-26T14:01:39;99576.03;;;1.40;100.00
41254;BME280;26987;59.928;30.306;2023-03-26T14:04:16;99562.34;;;1.36;100.00
41254;BME280;26987;59.928;30.306;2023-03-26T14:06:49;99551.03;;;1.27;100.00
41254;BME280;26987;59.928;30.306;2023-03-26T14:09:27;99570.75;;;1.40;100.00
41254;BME280;26987;59.928;30.306;2023-03-26T14:12:13;99574.88;;;1.42;100.00
41254;BME280;26987;59.928;30.306;2023-03-26T14:14:48;99573.16;;;1.49;100.00
41254;BME280;26987;59.928;30.306;2023-03-26T14:17:22;99572.72;;;1.46;100.00